createdAt,value
2018-09-08T00:01:33.936Z,101179.75
2018-09-08T00:04:04.042Z,101191.97
2018-09-08T00:06:35.405Z,101186.87
2018-09-08T00:09:08.045Z,101197.73
2018-09-08T00:11:37.099Z,101187.86
2018-09-08T00:14:07.671Z,101187.48
2018-09-08T00:16:44.528Z,101191.86
2018-09-08T00:19:19.999Z,101192.31
2018-09-08T00:21:58.113Z,101186.79
2018-09-08T00:24:33.388Z,101195.89
2018-09-08T00:27:06.081Z,101198.59
2018-09-08T00:29:40.703Z,101196.54
2018-09-08T00:32:12.840Z,101198.75
2018-09-08T00:34:43.073Z,101194.92
2018-09-08T00:37:11.733Z,101194.56
2018-09-08T00:39:42.725Z,101197.62
2018-09-08T00:42:11.960Z,101193.32
2018-09-08T00:44:40.826Z,101189.81
2018-09-08T00:47:10.652Z,101192.94
2018-09-08T00:49:40.397Z,101200.72
2018-09-08T00:52:09.781Z,101201.64
2018-09-08T00:54:38.510Z,101200.44
2018-09-08T00:57:07.450Z,101201.73
2018-09-08T00:59:36.114Z,101194.84
2018-09-08T01:02:05.208Z,101193.09
2018-09-08T01:04:34.173Z,101195.81
2018-09-08T01:07:04.905Z,101204.07
2018-09-08T01:09:34.171Z,101204.56
2018-09-08T01:12:03.297Z,101202.87
2018-09-08T01:14:32.575Z,101206.28
2018-09-08T01:17:01.842Z,101201.05
2018-09-08T01:19:31.636Z,101199.33
2018-09-08T01:22:01.999Z,101198.90
2018-09-08T01:24:33.450Z,101198.12
2018-09-08T01:27:02.076Z,101198.56
2018-09-08T01:29:32.432Z,101197.33
2018-09-08T01:32:02.515Z,101202.16
2018-09-08T01:34:31.095Z,101193.00
2018-09-08T01:36:59.990Z,101194.20
2018-09-08T01:39:30.980Z,101197.17
2018-09-08T01:42:00.766Z,101186.81
2018-09-08T01:44:30.097Z,101191.05
2018-09-08T01:46:59.401Z,101190.94
2018-09-08T01:49:28.590Z,101187.76
2018-09-08T01:51:57.760Z,101182.89
2018-09-08T01:54:28.105Z,101192.27
2018-09-08T01:56:57.412Z,101186.44
2018-09-08T01:59:27.370Z,101187.53
2018-09-08T02:01:56.566Z,101182.59
2018-09-08T02:04:26.094Z,101172.52
2018-09-08T02:06:54.942Z,101177.23
2018-09-08T02:09:23.685Z,101175.56
2018-09-08T02:11:53.865Z,101178.09
2018-09-08T02:14:22.525Z,101176.34
2018-09-08T02:16:51.259Z,101181.05
2018-09-08T02:19:21.493Z,101172.40
2018-09-08T02:21:54.770Z,101180.23
2018-09-08T02:24:25.304Z,101164.20
2018-09-08T02:26:54.084Z,101169.02
2018-09-08T02:29:22.832Z,101162.67
2018-09-08T02:31:53.095Z,101172.30
2018-09-08T02:34:23.738Z,101170.13
2018-09-08T02:36:52.825Z,101174.45
2018-09-08T02:39:22.391Z,101166.63
2018-09-08T02:41:52.468Z,101174.45
2018-09-08T02:44:21.229Z,101177.61
2018-09-08T02:46:51.018Z,101169.83
2018-09-08T02:49:20.488Z,101179.72
2018-09-08T02:51:47.844Z,101173.34
2018-09-08T02:54:15.195Z,101174.52
2018-09-08T02:56:42.641Z,101172.84
2018-09-08T02:59:10.146Z,101180.73
2018-09-08T03:01:37.615Z,101178.15
2018-09-08T03:04:04.901Z,101176.16
2018-09-08T03:06:32.346Z,101184.46
2018-09-08T03:08:59.640Z,101179.77
2018-09-08T03:11:26.917Z,101185.51
2018-09-08T03:13:54.715Z,101189.02
2018-09-08T03:16:22.047Z,101189.89
2018-09-08T03:18:49.450Z,101193.37
2018-09-08T03:21:17.594Z,101200.01
2018-09-08T03:23:46.623Z,101201.30
2018-09-08T03:26:16.700Z,101203.61
2018-09-08T03:28:44.357Z,101201.92
2018-09-08T03:31:11.689Z,101204.56
2018-09-08T03:33:39.167Z,101208.44
2018-09-08T03:36:07.650Z,101207.52
2018-09-08T03:38:35.188Z,101201.88
2018-09-08T03:41:03.722Z,101198.95
2018-09-08T03:43:31.036Z,101206.72
2018-09-08T03:45:58.352Z,101193.87
2018-09-08T03:48:26.575Z,101202.45
2018-09-08T03:50:54.200Z,101198.52
2018-09-08T03:53:21.553Z,101196.02
2018-09-08T03:55:48.888Z,101203.40
2018-09-08T03:58:16.636Z,101207.71
2018-09-08T04:00:44.953Z,101209.91
2018-09-08T04:03:14.476Z,101214.66
2018-09-08T04:05:43.763Z,101217.72
2018-09-08T04:08:12.202Z,101206.03
2018-09-08T04:10:42.020Z,101209.00
2018-09-08T04:13:10.808Z,101219.31
2018-09-08T04:15:40.675Z,101214.56
2018-09-08T04:18:09.827Z,101217.20
2018-09-08T04:20:40.734Z,101218.02
2018-09-08T04:23:09.554Z,101224.44
2018-09-08T04:25:38.360Z,101217.97
2018-09-08T04:28:07.042Z,101224.83
2018-09-08T04:30:35.809Z,101225.73
2018-09-08T04:33:05.578Z,101224.57
2018-09-08T04:35:35.607Z,101233.12
2018-09-08T04:38:05.082Z,101231.34
2018-09-08T04:40:33.911Z,101233.89
2018-09-08T04:43:03.807Z,101234.27
2018-09-08T04:45:32.487Z,101241.22
2018-09-08T04:48:02.063Z,101242.12
2018-09-08T04:50:31.198Z,101243.42
2018-09-08T04:53:00.027Z,101251.19
2018-09-08T04:55:28.776Z,101248.55
2018-09-08T04:57:58.435Z,101247.89
2018-09-08T05:00:27.020Z,101251.27
2018-09-08T05:02:55.612Z,101257.27
2018-09-08T05:05:25.611Z,101256.01
2018-09-08T05:07:54.763Z,101252.95
2018-09-08T05:10:24.324Z,101259.33
2018-09-08T05:12:53.992Z,101259.25
2018-09-08T05:15:22.546Z,101263.61
2018-09-08T05:17:51.100Z,101262.70
2018-09-08T05:20:20.885Z,101270.50
2018-09-08T05:22:50.276Z,101266.45
2018-09-08T05:25:18.883Z,101276.80
2018-09-08T05:27:47.548Z,101282.42
2018-09-08T05:30:17.896Z,101277.20
2018-09-08T05:32:48.809Z,101285.73
2018-09-08T05:35:18.180Z,101284.87
2018-09-08T05:37:47.874Z,101283.96
2018-09-08T05:40:17.368Z,101291.30
2018-09-08T05:42:46.240Z,101290.77
2018-09-08T05:45:15.198Z,101287.27
2018-09-08T05:47:44.655Z,101291.53
2018-09-08T05:50:15.061Z,101292.02
2018-09-08T05:52:44.054Z,101293.27
2018-09-08T05:55:12.691Z,101301.27
2018-09-08T05:57:43.685Z,101299.44
2018-09-08T06:00:12.365Z,101303.86
2018-09-08T06:02:41.039Z,101306.45
2018-09-08T06:05:11.807Z,101309.47
2018-09-08T06:07:41.466Z,101314.22
2018-09-08T06:10:11.788Z,101318.48
2018-09-08T06:12:40.473Z,101320.20
2018-09-08T06:15:09.618Z,101324.11
2018-09-08T06:17:39.698Z,101320.22
2018-09-08T06:20:08.589Z,101324.87
2018-09-08T06:22:37.683Z,101332.54
2018-09-08T06:25:06.655Z,101319.92
2018-09-08T06:27:36.101Z,101325.97
2018-09-08T06:30:06.195Z,101331.53
2018-09-08T06:32:36.029Z,101340.06
2018-09-08T06:35:05.033Z,101340.45
2018-09-08T06:37:33.942Z,101340.88
2018-09-08T06:40:04.005Z,101337.48
2018-09-08T06:42:33.053Z,101343.95
2018-09-08T06:45:03.610Z,101349.14
2018-09-08T06:47:32.190Z,101348.76
2018-09-08T06:50:00.955Z,101352.10
2018-09-08T06:52:31.767Z,101361.56
2018-09-08T06:55:00.430Z,101357.14
2018-09-08T06:57:29.183Z,101361.45
2018-09-08T06:59:59.764Z,101363.08
2018-09-08T07:02:28.760Z,101363.98
2018-09-08T07:04:58.684Z,101368.27
2018-09-08T07:07:27.337Z,101367.01
2018-09-08T07:09:56.194Z,101368.95
2018-09-08T07:12:24.838Z,101363.38
2018-09-08T07:14:53.459Z,101361.95
2018-09-08T07:17:22.287Z,101366.63
2018-09-08T07:19:51.384Z,101368.25
2018-09-08T07:22:22.730Z,101363.40
2018-09-08T07:24:52.004Z,101368.03
2018-09-08T07:27:21.248Z,101365.43
2018-09-08T07:29:51.113Z,101372.84
2018-09-08T07:32:24.710Z,101371.94
2018-09-08T07:34:55.259Z,101368.02
2018-09-08T07:37:24.091Z,101374.84
2018-09-08T07:39:54.501Z,101378.24
2018-09-08T07:42:23.626Z,101381.30
2018-09-08T07:44:52.267Z,101382.13
2018-09-08T07:47:21.016Z,101381.20
2018-09-08T07:49:49.764Z,101379.34
2018-09-08T07:52:22.355Z,101377.19
2018-09-08T07:54:51.067Z,101378.46
2018-09-08T07:57:20.299Z,101380.08
2018-09-08T07:59:48.867Z,101385.66
2018-09-08T08:02:24.244Z,101385.52
2018-09-08T08:04:53.530Z,101382.48
2018-09-08T08:07:22.241Z,101387.94
2018-09-08T08:09:51.007Z,101393.17
2018-09-08T08:12:19.578Z,101393.97
2018-09-08T08:14:48.274Z,101395.16
2018-09-08T08:17:16.886Z,101392.42
2018-09-08T08:19:45.517Z,101392.73
2018-09-08T08:22:14.879Z,101386.16
2018-09-08T08:24:43.623Z,101389.55
2018-09-08T08:27:12.246Z,101389.06
2018-09-08T08:29:40.909Z,101389.34
2018-09-08T08:32:09.796Z,101386.27
2018-09-08T08:34:38.734Z,101385.66
2018-09-08T08:37:08.403Z,101391.14
2018-09-08T08:39:36.974Z,101385.43
2018-09-08T08:42:06.799Z,101400.45
2018-09-08T08:44:39.754Z,101387.14
2018-09-08T08:47:08.537Z,101389.23
2018-09-08T08:49:37.234Z,101390.02
2018-09-08T08:52:16.920Z,101394.20
2018-09-08T08:54:48.190Z,101395.81
2018-09-08T08:57:17.166Z,101386.64
2018-09-08T08:59:47.255Z,101399.41
2018-09-08T09:02:16.806Z,101393.58
2018-09-08T09:04:45.411Z,101396.73
2018-09-08T09:07:14.542Z,101401.27
2018-09-08T09:09:48.514Z,101399.44
2018-09-08T09:12:17.062Z,101391.57
2018-09-08T09:14:45.717Z,101386.77
2018-09-08T09:17:15.266Z,101386.25
2018-09-08T09:19:55.059Z,101389.06
2018-09-08T09:22:35.933Z,101395.05
2018-09-08T09:25:06.546Z,101395.47
2018-09-08T09:27:37.834Z,101400.10
2018-09-08T09:30:13.518Z,101394.69
2018-09-08T09:32:48.625Z,101385.86
2018-09-08T09:35:19.178Z,101395.33
2018-09-08T09:37:48.837Z,101392.59
2018-09-08T09:40:18.782Z,101393.31
2018-09-08T09:42:47.474Z,101391.62
2018-09-08T09:45:16.811Z,101397.42
2018-09-08T09:47:56.814Z,101396.30
2018-09-08T09:50:28.030Z,101405.73
2018-09-08T09:52:57.737Z,101398.69
2018-09-08T09:55:26.378Z,101399.84
2018-09-08T09:57:55.021Z,101400.31
2018-09-08T10:00:29.931Z,101398.18
2018-09-08T10:03:05.337Z,101399.64
2018-09-08T10:05:33.955Z,101403.26
2018-09-08T10:08:04.586Z,101399.26
2018-09-08T10:10:34.945Z,101397.86
2018-09-08T10:13:06.441Z,101396.73
2018-09-08T10:15:35.215Z,101397.13
2018-09-08T10:18:06.234Z,101399.62
2018-09-08T10:20:35.719Z,101395.26
2018-09-08T10:23:05.065Z,101400.48
2018-09-08T10:25:35.222Z,101397.32
2018-09-08T10:28:05.328Z,101388.44
2018-09-08T10:30:34.818Z,101393.31
2018-09-08T10:33:04.096Z,101395.83
2018-09-08T10:35:33.074Z,101395.92
2018-09-08T10:38:03.930Z,101399.61
2018-09-08T10:40:33.737Z,101400.92
2018-09-08T10:43:02.761Z,101399.27
2018-09-08T10:45:31.849Z,101390.89
2018-09-08T10:48:00.701Z,101393.02
2018-09-08T10:50:30.345Z,101406.38
2018-09-08T10:52:59.136Z,101393.34
2018-09-08T10:55:28.119Z,101392.95
2018-09-08T10:57:56.896Z,101397.03
2018-09-08T11:00:25.490Z,101397.25
2018-09-08T11:02:54.521Z,101390.80
2018-09-08T11:05:24.058Z,101402.35
2018-09-08T11:07:52.890Z,101393.41
2018-09-08T11:10:21.491Z,101393.25
2018-09-08T11:12:50.380Z,101390.84
2018-09-08T11:15:19.150Z,101387.30
2018-09-08T11:17:47.774Z,101391.26
2018-09-08T11:20:16.466Z,101394.17
2018-09-08T11:22:45.333Z,101394.28
2018-09-08T11:25:14.689Z,101394.83
2018-09-08T11:27:43.406Z,101398.09
2018-09-08T11:30:12.018Z,101411.78
2018-09-08T11:32:40.561Z,101407.78
2018-09-08T11:35:09.157Z,101395.59
2018-09-08T11:37:37.874Z,101397.34
2018-09-08T11:40:07.659Z,101394.86
2018-09-08T11:42:37.220Z,101390.80
2018-09-08T11:45:06.691Z,101390.95
2018-09-08T11:47:35.236Z,101388.75
2018-09-08T11:50:04.076Z,101389.87
2018-09-08T11:52:32.707Z,101390.60
2018-09-08T11:55:01.941Z,101393.42
2018-09-08T11:57:30.480Z,101402.77
2018-09-08T11:59:59.015Z,101386.82
2018-09-08T12:02:27.855Z,101390.41
2018-09-08T12:04:57.080Z,101386.79
2018-09-08T12:07:27.299Z,101382.19
2018-09-08T12:09:56.150Z,101389.57
2018-09-08T12:12:24.769Z,101394.04
2018-09-08T12:14:53.356Z,101387.55
2018-09-08T12:17:22.140Z,101384.08
2018-09-08T12:19:51.641Z,101391.36
2018-09-08T12:22:20.856Z,101384.94
2018-09-08T12:24:49.550Z,101389.16
2018-09-08T12:27:18.176Z,101390.13
2018-09-08T12:29:47.697Z,101389.47
2018-09-08T12:32:16.370Z,101386.86
2018-09-08T12:34:45.731Z,101382.94
2018-09-08T12:37:15.845Z,101381.02
2018-09-08T12:39:44.574Z,101384.00
2018-09-08T12:42:13.640Z,101388.06
2018-09-08T12:44:42.792Z,101385.49
2018-09-08T12:47:11.478Z,101384.27
2018-09-08T12:49:41.914Z,101385.68
2018-09-08T12:52:11.590Z,101375.48
2018-09-08T12:54:40.649Z,101378.84
2018-09-08T12:57:09.606Z,101379.02
2018-09-08T12:59:38.609Z,101372.69
2018-09-08T13:02:07.223Z,101366.53
2018-09-08T13:04:35.818Z,101369.20
2018-09-08T13:07:04.550Z,101361.25
2018-09-08T13:09:33.204Z,101364.61
2018-09-08T13:12:02.628Z,101362.11
2018-09-08T13:14:31.625Z,101368.20
2018-09-08T13:17:00.136Z,101369.77
2018-09-08T13:19:28.702Z,101367.54
2018-09-08T13:21:57.439Z,101368.62
2018-09-08T13:24:26.105Z,101362.09
2018-09-08T13:26:54.806Z,101371.91
2018-09-08T13:29:23.411Z,101370.16
2018-09-08T13:31:52.701Z,101370.00
2018-09-08T13:34:23.375Z,101363.91
2018-09-08T13:36:52.054Z,101372.00
2018-09-08T13:39:20.858Z,101369.28
2018-09-08T13:41:49.536Z,101372.20
2018-09-08T13:44:18.307Z,101368.42
2018-09-08T13:46:47.640Z,101364.25
2018-09-08T13:49:17.744Z,101363.72
2018-09-08T13:51:46.992Z,101353.90
2018-09-08T13:54:16.274Z,101348.77
2018-09-08T13:56:44.930Z,101352.30
2018-09-08T13:59:13.886Z,101347.39
2018-09-08T14:01:42.588Z,101349.52
2018-09-08T14:04:11.782Z,101352.52
2018-09-08T14:06:40.731Z,101348.48
2018-09-08T14:09:10.296Z,101347.46
2018-09-08T14:11:39.048Z,101335.76
2018-09-08T14:14:07.656Z,101340.36
2018-09-08T14:16:37.865Z,101338.70
2018-09-08T14:19:06.949Z,101351.01
2018-09-08T14:21:36.310Z,101343.20
2018-09-08T14:24:05.226Z,101339.84
2018-09-08T14:26:34.448Z,101340.12
2018-09-08T14:29:03.257Z,101331.81
2018-09-08T14:31:31.937Z,101318.95
2018-09-08T14:34:00.653Z,101315.73
2018-09-08T14:36:30.632Z,101318.36
2018-09-08T14:38:59.382Z,101320.03
2018-09-08T14:41:28.063Z,101330.03
2018-09-08T14:43:56.637Z,101322.78
2018-09-08T14:46:25.431Z,101329.75
2018-09-08T14:48:55.636Z,101327.22
2018-09-08T14:51:25.315Z,101337.67
2018-09-08T14:53:53.949Z,101332.03
2018-09-08T14:56:23.756Z,101329.79
2018-09-08T14:58:53.054Z,101338.02
2018-09-08T15:01:22.498Z,101338.11
2018-09-08T15:03:51.338Z,101340.92
2018-09-08T15:06:20.392Z,101340.92
2018-09-08T15:08:49.182Z,101333.69
2018-09-08T15:11:19.555Z,101337.57
2018-09-08T15:13:48.251Z,101335.16
2018-09-08T15:16:16.848Z,101327.05
2018-09-08T15:18:45.497Z,101326.64
2018-09-08T15:21:14.494Z,101326.77
2018-09-08T15:23:43.499Z,101320.36
2018-09-08T15:26:12.232Z,101329.33
2018-09-08T15:28:40.915Z,101332.20
2018-09-08T15:31:09.710Z,101339.60
2018-09-08T15:33:38.318Z,101332.95
2018-09-08T15:36:07.680Z,101334.72
2018-09-08T15:38:36.446Z,101335.53
2018-09-08T15:41:05.022Z,101335.13
2018-09-08T15:43:34.493Z,101335.37
2018-09-08T15:46:04.801Z,101333.61
2018-09-08T15:48:33.606Z,101334.04
2018-09-08T15:51:03.793Z,101336.06
2018-09-08T15:53:32.481Z,101332.72
2018-09-08T15:56:01.520Z,101334.59
2018-09-08T15:58:31.537Z,101336.44
2018-09-08T16:01:00.879Z,101335.76
2018-09-08T16:03:30.229Z,101333.19
2018-09-08T16:05:59.079Z,101334.66
2018-09-08T16:08:28.052Z,101334.05
2018-09-08T16:10:58.515Z,101331.02
2018-09-08T16:13:29.157Z,101338.65
2018-09-08T16:15:57.819Z,101339.22
2018-09-08T16:18:26.953Z,101336.34
2018-09-08T16:20:56.669Z,101334.22
2018-09-08T16:23:25.337Z,101332.05
2018-09-08T16:25:54.086Z,101333.52
2018-09-08T16:28:22.683Z,101344.66
2018-09-08T16:30:51.265Z,101336.07
2018-09-08T16:33:20.752Z,101345.89
2018-09-08T16:35:50.612Z,101345.92
2018-09-08T16:38:20.357Z,101350.06
2018-09-08T16:40:49.062Z,101357.27
2018-09-08T16:43:19.378Z,101348.34
2018-09-08T16:45:48.282Z,101356.81
2018-09-08T16:48:18.230Z,101351.35
2018-09-08T16:50:47.667Z,101364.89
2018-09-08T16:53:17.277Z,101366.00
2018-09-08T16:55:45.968Z,101362.30
2018-09-08T16:58:14.942Z,101361.58
2018-09-08T17:00:43.969Z,101355.33
2018-09-08T17:03:13.053Z,101351.55
2018-09-08T17:05:42.364Z,101355.57
2018-09-08T17:08:15.167Z,101354.33
2018-09-08T17:10:45.059Z,101355.36
2018-09-08T17:13:14.016Z,101357.56
2018-09-08T17:15:43.648Z,101361.54
2018-09-08T17:18:14.310Z,101354.43
2018-09-08T17:20:44.353Z,101360.16
2018-09-08T17:23:13.128Z,101360.19
2018-09-08T17:25:42.352Z,101358.58
2018-09-08T17:28:11.022Z,101362.55
2018-09-08T17:30:41.180Z,101362.20
2018-09-08T17:33:09.920Z,101350.94
2018-09-08T17:35:39.635Z,101355.30
2018-09-08T17:38:08.436Z,101367.97
2018-09-08T17:40:38.955Z,101364.18
2018-09-08T17:43:07.859Z,101366.82
2018-09-08T17:45:37.679Z,101369.81
2018-09-08T17:48:07.634Z,101376.39
2018-09-08T17:50:36.230Z,101375.09
2018-09-08T17:53:05.472Z,101380.78
2018-09-08T17:55:35.692Z,101382.03
2018-09-08T17:58:04.403Z,101376.46
2018-09-08T18:00:34.183Z,101376.39
2018-09-08T18:03:03.292Z,101381.33
2018-09-08T18:05:31.844Z,101383.11
2018-09-08T18:08:00.688Z,101379.70
2018-09-08T18:10:30.033Z,101380.59
2018-09-08T18:13:00.776Z,101384.95
2018-09-08T18:15:29.547Z,101381.48
2018-09-08T18:17:58.380Z,101386.37
2018-09-08T18:20:28.533Z,101390.06
2018-09-08T18:22:58.424Z,101393.09
2018-09-08T18:25:32.565Z,101391.43
2018-09-08T18:28:02.950Z,101398.87
2018-09-08T18:30:32.371Z,101397.72
2018-09-08T18:33:02.904Z,101398.16
2018-09-08T18:35:31.888Z,101400.00
2018-09-08T18:38:01.644Z,101410.42
2018-09-08T18:40:30.277Z,101409.51
2018-09-08T18:43:00.220Z,101406.13
2018-09-08T18:45:30.053Z,101404.47
2018-09-08T18:47:58.606Z,101414.57
2018-09-08T18:50:27.230Z,101417.23
2018-09-08T18:52:56.079Z,101416.81
2018-09-08T18:55:25.388Z,101416.87
2018-09-08T18:57:54.511Z,101422.20
2018-09-08T19:00:23.091Z,101422.32
2018-09-08T19:02:52.111Z,101419.47
2018-09-08T19:05:21.231Z,101420.52
2018-09-08T19:07:51.782Z,101415.84
2018-09-08T19:10:20.778Z,101423.47
2018-09-08T19:12:50.635Z,101425.81
2018-09-08T19:15:21.802Z,101428.19
2018-09-08T19:17:50.678Z,101426.89
2018-09-08T19:20:25.559Z,101421.84
2018-09-08T19:22:54.507Z,101420.20
2018-09-08T19:25:45.640Z,101419.86
2018-09-08T19:28:31.871Z,101415.17
2018-09-08T19:31:01.826Z,101419.16
2018-09-08T19:33:31.633Z,101419.20
2018-09-08T19:36:04.167Z,101418.41
2018-09-08T19:38:32.767Z,101421.08
2018-09-08T19:41:02.477Z,101422.02
2018-09-08T19:43:32.184Z,101423.84
2018-09-08T19:46:05.039Z,101422.53
2018-09-08T19:48:34.146Z,101425.57
2018-09-08T19:51:03.665Z,101434.73
2018-09-08T19:53:38.234Z,101431.66
2018-09-08T19:56:07.033Z,101426.02
2018-09-08T19:58:42.884Z,101427.31
2018-09-08T20:01:14.768Z,101426.51
2018-09-08T20:03:44.626Z,101425.62
2018-09-08T20:06:13.988Z,101425.12
2018-09-08T20:08:43.765Z,101429.03
2018-09-08T20:11:12.565Z,101431.22
2018-09-08T20:13:41.796Z,101435.55
2018-09-08T20:16:11.275Z,101435.13
2018-09-08T20:18:40.280Z,101434.20
2018-09-08T20:21:08.987Z,101432.89
2018-09-08T20:23:38.311Z,101428.57
2018-09-08T20:26:07.527Z,101430.79
2018-09-08T20:28:37.022Z,101430.33
2018-09-08T20:31:05.833Z,101436.86
2018-09-08T20:33:35.172Z,101442.98
2018-09-08T20:36:04.269Z,101441.69
2018-09-08T20:38:33.320Z,101449.86
2018-09-08T20:41:03.756Z,101439.41
2018-09-08T20:43:32.523Z,101436.72
2018-09-08T20:46:02.689Z,101432.89
2018-09-08T20:48:31.317Z,101431.22
2018-09-08T20:51:03.149Z,101429.13
2018-09-08T20:53:32.127Z,101432.75
2018-09-08T20:56:01.840Z,101430.22
2018-09-08T20:58:31.079Z,101434.22
2018-09-08T21:01:00.104Z,101431.25
2018-09-08T21:03:28.711Z,101425.62
2018-09-08T21:05:57.377Z,101418.67
2018-09-08T21:08:26.103Z,101429.11
2018-09-08T21:10:54.924Z,101425.70
2018-09-08T21:13:24.286Z,101426.23
2018-09-08T21:15:53.582Z,101422.47
2018-09-08T21:18:22.784Z,101427.27
2018-09-08T21:20:51.385Z,101423.05
2018-09-08T21:23:20.278Z,101423.93
2018-09-08T21:25:49.406Z,101426.11
2018-09-08T21:28:18.121Z,101431.41
2018-09-08T21:30:47.609Z,101430.61
2018-09-08T21:33:16.400Z,101428.45
2018-09-08T21:35:45.389Z,101422.46
2018-09-08T21:38:14.826Z,101427.27
2018-09-08T21:40:44.657Z,101427.27
2018-09-08T21:43:13.263Z,101429.89
2018-09-08T21:45:43.078Z,101433.87
2018-09-08T21:48:12.726Z,101430.84
2018-09-08T21:50:42.933Z,101437.34
2018-09-08T21:53:11.618Z,101431.28
2018-09-08T21:55:41.635Z,101435.30
2018-09-08T21:58:11.068Z,101430.16
2018-09-08T22:00:42.668Z,101437.03
2018-09-08T22:03:11.690Z,101435.31
2018-09-08T22:05:40.752Z,101440.51
2018-09-08T22:08:09.963Z,101444.84
2018-09-08T22:10:39.154Z,101446.15
2018-09-08T22:13:09.552Z,101433.64
2018-09-08T22:15:38.447Z,101437.13
2018-09-08T22:18:09.097Z,101441.03
2018-09-08T22:20:37.831Z,101440.66
2018-09-08T22:23:07.484Z,101438.56
2018-09-08T22:25:36.128Z,101438.61
2018-09-08T22:28:05.000Z,101437.75
2018-09-08T22:30:33.792Z,101435.95
2018-09-08T22:33:03.403Z,101436.03
2018-09-08T22:35:32.283Z,101440.80
2018-09-08T22:38:01.811Z,101435.22
2018-09-08T22:40:30.447Z,101433.06
2018-09-08T22:42:59.612Z,101431.35
2018-09-08T22:45:29.296Z,101435.39
2018-09-08T22:47:58.217Z,101433.67
2018-09-08T22:50:27.728Z,101435.78
2018-09-08T22:52:57.502Z,101434.53
2018-09-08T22:55:26.633Z,101434.05
2018-09-08T22:57:55.353Z,101434.17
2018-09-08T23:00:24.201Z,101432.03
2018-09-08T23:02:57.236Z,101439.94
2018-09-08T23:05:30.395Z,101438.71
2018-09-08T23:07:59.767Z,101446.95
2018-09-08T23:10:28.465Z,101449.12
2018-09-08T23:12:57.968Z,101447.75
2018-09-08T23:15:27.165Z,101448.60
2018-09-08T23:17:55.896Z,101450.70
2018-09-08T23:20:25.038Z,101457.77
2018-09-08T23:22:53.686Z,101458.20
2018-09-08T23:25:22.908Z,101456.53
2018-09-08T23:27:51.974Z,101461.36
2018-09-08T23:30:21.195Z,101457.98
2018-09-08T23:32:50.407Z,101451.15
2018-09-08T23:35:19.493Z,101451.72
2018-09-08T23:37:48.414Z,101452.28
2018-09-08T23:40:17.141Z,101452.33
2018-09-08T23:42:45.700Z,101459.25
2018-09-08T23:45:14.290Z,101455.30
2018-09-08T23:47:43.709Z,101458.70
2018-09-08T23:50:12.320Z,101459.20
2018-09-08T23:52:41.024Z,101462.67
2018-09-08T23:55:09.728Z,101466.62
2018-09-08T23:57:38.378Z,101468.78
